Airfield :







YOU CAN JOIN US ON...

 
LOGIN :

Register | Disclaimer

   EN    FR    IT 

 









Legend :    VFR   Marginal VFR   IFR   Intensive IFR   Very Intensive IFR
Visi :
Ceiling :
>= 8 km
>= 3000ft
5 to 8 km
1000 to 3000 ft
1500m to 5 km
500 to 1000 ft
800 to 1500m
200 to 500 ft
< 800m
< 200 ft
Symbols :   Thunderstorms  Fog  Heavy snow  Heavy precipitations  Wind > 20 kt






- Airport Elevation : 496 ft
- IATA code : YQX


CYQX - Gander

CURRENT METAR :
  • 121900Z 22011G18KT 20SM FEW064 BKN085 BKN110 15/04 A2983 RMK CU1AC5AC1 SH DIST N-NE SLP107 DENSITY ALT 700FT

EXPIRED METARs :
  • 121800Z 21014G21KT 20SM FEW066 BKN095 17/02 A2983 RMK CU2AC5 SLP107 DENSITY ALT 1000FT
  • 121700Z 19010G16KT 160V220 20SM SCT068 BKN085 17/02 A2983 RMK CU4AC3 SLP107 DENSITY ALT 1000FT

TAF TAF CYQX
Valid from the 12 at 18:00 until the 13 at 18:00 UTC


121738Z 1218/1318 18008KT P6SM BKN070 BKN090 BKN170
TEMPO 1218/1223 P6SM -SHRA
FM122300 20012KT P6SM FEW050
FM130600 18012KT P6SM BKN060
TEMPO 1306/1312 P6SM -SHRA
FM131200 14010KT P6SM -SHRA BKN060 RMK NXT FCST BY 130000Z
CZQX FIR / North America



MET'MAP, your aeronautical weather chart ! - Copyright ORBIFLY December 2007 - Disclaimer

ORBIFLY MET'MAP TEAM :

Programming & Development : Alexandra Zaïnal
Concept & original design : Baudouin d'Aumeries
Assistance for programming : Marc-Olivier Méhu
Technical & hardware support : Manuel Goepfert

Contact : metmap@orbifly.com




SOURCES & CREDITS :

   NOAA